Time;durP1;ratioP1;P1;durP2;ratioP2;P2;SDS_P1;SDS_P2;PMS_P1;PMS_P2;Temp;Humidity;BMP_temperature;BMP_pressure;BME280_temperature;BME280_humidity;BME280_pressure;Samples;Min_cycle;Max_cycle;Signal;HPM_P1;HPM_P2
2022/05/23 00:01:56;;;;;;;25.42;23.40;;;13.20;99.90;;;;;;5001600;28;20065;-75
2022/05/23 00:04:22;;;;;;;24.88;23.00;;;13.10;99.90;;;;;;4984100;28;20386;-75
2022/05/23 00:06:50;;;;;;;25.73;23.38;;;13.10;99.90;;;;;;5001241;28;20144;-75
2022/05/23 00:09:17;;;;;;;28.73;23.55;;;13.20;99.90;;;;;;4981898;28;20061;-74
2022/05/23 00:11:44;;;;;;;25.35;22.90;;;13.20;99.90;;;;;;4995827;28;20073;-74
2022/05/23 00:14:12;;;;;;;25.15;22.92;;;13.20;99.90;;;;;;5005861;28;20525;-75
2022/05/23 00:16:42;;;;;;;25.27;23.17;;;13.20;99.90;;;;;;4981843;28;20050;-75
2022/05/23 00:19:10;;;;;;;24.98;22.88;;;13.20;99.90;;;;;;5001310;28;20152;-75
2022/05/23 00:21:40;;;;;;;25.40;23.40;;;13.20;99.90;;;;;;4981958;28;20050;-74
2022/05/23 00:24:08;;;;;;;24.63;22.67;;;13.20;99.90;;;;;;5000826;28;20093;-75
2022/05/23 00:26:35;;;;;;;24.80;22.55;;;13.20;99.90;;;;;;4999079;28;20042;-75
2022/05/23 00:29:03;;;;;;;25.70;23.45;;;13.20;99.90;;;;;;4995868;28;20133;-75
2022/05/23 00:31:30;;;;;;;25.13;22.88;;;13.20;99.90;;;;;;4982441;28;20459;-75
2022/05/23 00:36:43;;;;;;;24.45;22.67;;;13.20;99.90;;;;;;4998007;28;20060;-74
2022/05/23 00:39:10;;;;;;;26.63;24.17;;;13.10;99.90;;;;;;4982912;28;20111;-74
2022/05/23 00:44:33;;;;;;;25.33;23.50;;;13.20;99.90;;;;;;4992416;28;20050;-74
2022/05/23 00:47:12;;;;;;;25.02;22.95;;;13.10;99.90;;;;;;4974518;28;20049;-74
2022/05/23 00:49:39;;;;;;;25.33;23.35;;;13.10;99.90;;;;;;4964115;28;20092;-75
2022/05/23 00:52:09;;;;;;;25.17;22.67;;;13.10;99.90;;;;;;5009103;28;20149;-74
2022/05/23 00:54:47;;;;;;;25.42;23.15;;;13.10;99.90;;;;;;5002740;28;20214;-73
2022/05/23 00:57:18;;;;;;;24.80;22.88;;;13.10;99.90;;;;;;5019478;28;20135;-74
2022/05/23 00:59:45;;;;;;;25.23;23.05;;;13.00;99.90;;;;;;5015710;28;20112;-75
2022/05/23 01:02:13;;;;;;;24.90;23.05;;;13.00;99.90;;;;;;4978929;28;20057;-73
2022/05/23 01:04:41;;;;;;;36.47;23.83;;;13.00;99.90;;;;;;5002423;28;20411;-74
2022/05/23 01:07:09;;;;;;;26.65;24.17;;;13.00;99.90;;;;;;5001779;28;20049;-74
2022/05/23 01:09:36;;;;;;;25.92;23.63;;;13.00;99.90;;;;;;4987362;28;20171;-75
2022/05/23 01:12:03;;;;;;;24.92;22.80;;;13.00;99.90;;;;;;4985505;28;20050;-74
2022/05/23 01:14:58;;;;;;;23.83;22.23;;;13.00;99.90;;;;;;4994830;28;20397;-75
2022/05/23 01:17:27;;;;;;;24.75;22.60;;;13.00;99.90;;;;;;5020695;22;20301;-73
2022/05/23 01:19:56;;;;;;;24.67;22.77;;;13.00;99.90;;;;;;5000989;28;20054;-71
2022/05/23 01:22:50;;;;;;;24.55;22.30;;;13.00;99.90;;;;;;4967833;28;20050;-72
2022/05/23 01:25:47;;;;;;;24.10;22.30;;;13.00;99.90;;;;;;5002012;28;20061;-72
2022/05/23 01:28:42;;;;;;;24.52;22.70;;;13.10;99.90;;;;;;5004733;28;20065;-71
2022/05/23 01:31:12;;;;;;;24.88;22.60;;;13.00;99.90;;;;;;5011696;28;20042;-72
2022/05/23 01:33:40;;;;;;;24.35;22.30;;;13.00;99.90;;;;;;5002407;28;20045;-72
2022/05/23 01:36:14;;;;;;;24.30;22.25;;;13.10;99.90;;;;;;5004047;28;20056;-72
2022/05/23 01:38:42;;;;;;;23.70;21.63;;;13.00;99.90;;;;;;4994619;28;20058;-72
2022/05/23 01:41:14;;;;;;;23.88;21.67;;;13.00;99.90;;;;;;4983751;28;20509;-71
2022/05/23 01:43:49;;;;;;;23.95;21.92;;;13.10;99.90;;;;;;5008059;28;20104;-71
2022/05/23 01:46:30;;;;;;;24.42;22.52;;;13.00;99.90;;;;;;5002240;28;20034;-71
2022/05/23 01:49:16;;;;;;;;;;;13.10;99.90;;;;;;4986520;28;20127;-70
2022/05/23 01:51:43;;;;;;;24.77;22.70;;;13.10;99.90;;;;;;4989058;28;20050;-71
2022/05/23 01:54:12;;;;;;;24.50;22.73;;;13.10;99.90;;;;;;5002846;28;20493;-72
2022/05/23 01:56:39;;;;;;;24.48;22.70;;;13.10;99.90;;;;;;4987139;28;20566;-72
2022/05/23 02:01:57;;;;;;;26.83;24.33;;;13.20;99.90;;;;;;5018851;28;20044;-70
2022/05/23 02:04:31;;;;;;;24.63;22.67;;;13.10;99.90;;;;;;5003237;28;20370;-71
2022/05/23 02:06:58;;;;;;;25.23;23.08;;;13.10;99.90;;;;;;5004015;28;20052;-71
2022/05/23 02:09:30;;;;;;;26.17;23.85;;;13.00;99.90;;;;;;4988716;28;20455;-71
2022/05/23 02:12:08;;;;;;;25.70;23.40;;;13.00;99.90;;;;;;5003644;28;20155;-71
2022/05/23 02:14:36;;;;;;;24.75;22.83;;;13.00;99.90;;;;;;5008994;28;20073;-71
2022/05/23 02:17:12;;;;;;;25.08;22.95;;;12.90;99.90;;;;;;5002336;28;20481;-70
2022/05/23 02:19:39;;;;;;;24.90;22.75;;;12.90;99.90;;;;;;5003306;28;20448;-71
2022/05/23 02:22:14;;;;;;;23.90;22.10;;;12.90;99.90;;;;;;5001470;28;20050;-71
2022/05/23 02:24:41;;;;;;;24.40;22.50;;;12.90;99.90;;;;;;5001850;28;20104;-71
2022/05/23 02:27:08;;;;;;;25.75;23.65;;;12.90;99.90;;;;;;4984902;28;20424;-71
2022/05/23 02:29:38;;;;;;;24.00;22.27;;;12.90;99.90;;;;;;5005298;28;20131;-71
2022/05/23 02:32:06;;;;;;;26.42;23.85;;;12.90;99.90;;;;;;5002922;28;20535;-71
2022/05/23 02:34:33;;;;;;;24.80;22.90;;;12.80;99.90;;;;;;4980345;28;20061;-71
2022/05/23 02:37:00;;;;;;;24.77;22.90;;;12.80;99.90;;;;;;4982728;28;20129;-70
2022/05/23 02:39:39;;;;;;;26.50;24.17;;;12.80;99.90;;;;;;4996839;28;20069;-70
2022/05/23 02:42:14;;;;;;;25.25;23.15;;;12.80;99.90;;;;;;5021177;28;20073;-72
2022/05/23 02:44:41;;;;;;;25.13;23.13;;;12.80;99.90;;;;;;5013139;28;20041;-73
2022/05/23 02:47:14;;;;;;;25.77;23.15;;;12.90;99.90;;;;;;4999939;28;20046;-72
2022/05/23 02:49:41;;;;;;;24.95;22.67;;;12.90;99.90;;;;;;5002278;28;20237;-72
2022/05/23 02:52:14;;;;;;;24.38;22.50;;;12.90;99.90;;;;;;5001360;28;20050;-73
2022/05/23 02:54:58;;;;;;;24.45;22.15;;;12.90;99.90;;;;;;5001624;28;20534;-70
2022/05/23 02:57:26;;;;;;;28.70;22.75;;;12.90;99.90;;;;;;5017736;28;20056;-70
2022/05/23 02:59:54;;;;;;;24.98;23.20;;;12.90;99.90;;;;;;5015940;28;20038;-70
2022/05/23 03:05:07;;;;;;;24.23;21.98;;;13.00;99.90;;;;;;5013131;28;20050;-71
2022/05/23 03:07:34;;;;;;;25.55;23.45;;;13.10;99.90;;;;;;4982136;28;20101;-71
2022/05/23 03:10:04;;;;;;;24.65;22.55;;;13.00;99.90;;;;;;4983953;28;20062;-71
2022/05/23 03:12:34;;;;;;;26.02;23.52;;;13.00;99.90;;;;;;4976707;28;20068;-71
2022/05/23 03:15:03;;;;;;;25.08;22.85;;;13.10;99.90;;;;;;5000462;28;20056;-71
2022/05/23 03:17:29;;;;;;;25.67;23.67;;;13.10;99.90;;;;;;5001186;28;20050;-71
2022/05/23 03:19:56;;;;;;;26.52;23.90;;;13.10;99.90;;;;;;5002213;28;20634;-72
2022/05/23 03:27:55;;;;;;;24.90;22.92;;;13.20;99.90;;;;;;4999077;28;20049;-71
2022/05/23 03:30:28;;;;;;;24.55;22.40;;;13.20;99.90;;;;;;5006636;28;20296;-71
2022/05/23 03:32:57;;;;;;;24.90;23.02;;;13.30;99.90;;;;;;5014163;28;20066;-71
2022/05/23 03:35:26;;;;;;;24.42;22.35;;;13.20;99.90;;;;;;5020746;28;20522;-71
2022/05/23 03:37:53;;;;;;;24.33;22.55;;;13.30;99.90;;;;;;5021046;28;20049;-71
2022/05/23 03:40:20;;;;;;;28.13;26.17;;;13.20;99.90;;;;;;4999468;28;20038;-71
2022/05/23 03:42:51;;;;;;;28.25;25.90;;;13.30;99.90;;;;;;5007209;28;20053;-70
2022/05/23 03:45:18;;;;;;;27.85;25.92;;;13.30;99.90;;;;;;5003790;28;20042;-71
2022/05/23 03:47:49;;;;;;;27.17;25.35;;;13.20;99.90;;;;;;5007667;28;20054;-71
2022/05/23 03:50:18;;;;;;;28.70;26.50;;;13.30;99.90;;;;;;5000190;28;20132;-72
2022/05/23 03:52:45;;;;;;;28.63;26.33;;;13.20;99.90;;;;;;4999992;28;20489;-72
2022/05/23 03:55:21;;;;;;;27.65;25.55;;;13.20;99.90;;;;;;5000257;28;20996;-71
2022/05/23 03:57:57;;;;;;;28.27;25.92;;;13.20;99.90;;;;;;4998526;28;20048;-71
2022/05/23 04:00:24;;;;;;;28.30;25.77;;;13.20;99.90;;;;;;4999897;28;20527;-72
2022/05/23 04:02:55;;;;;;;27.52;25.67;;;13.20;99.90;;;;;;5012509;28;20056;-71
2022/05/23 04:05:21;;;;;;;25.08;22.77;;;13.20;99.90;;;;;;5017718;28;20118;-72
2022/05/23 04:07:48;;;;;;;24.13;22.15;;;13.20;99.90;;;;;;5000681;28;20130;-71
2022/05/23 04:10:23;;;;;;;;;;;13.20;99.90;;;;;;4987070;28;20449;-71
2022/05/23 04:12:50;;;;;;;24.75;22.80;;;13.30;99.90;;;;;;5008576;28;19932;-71
2022/05/23 04:15:18;;;;;;;27.83;25.75;;;13.30;99.90;;;;;;5018219;28;20085;-71
2022/05/23 04:17:45;;;;;;;29.15;27.15;;;13.40;99.90;;;;;;5000321;28;20053;-71
2022/05/23 04:20:13;;;;;;;27.85;25.80;;;13.40;99.90;;;;;;4999414;28;20046;-71
2022/05/23 04:22:46;;;;;;;27.55;25.27;;;13.40;99.90;;;;;;4999933;28;20061;-70
2022/05/23 04:25:18;;;;;;;29.88;27.48;;;13.30;99.90;;;;;;5000235;28;20173;-72
2022/05/23 04:27:45;;;;;;;29.33;27.10;;;13.20;99.90;;;;;;5002285;28;20042;-71
2022/05/23 04:30:12;;;;;;;28.48;26.38;;;13.30;99.90;;;;;;4998185;28;20361;-72
2022/05/23 04:35:29;;;;;;;27.15;25.15;;;13.30;99.90;;;;;;5001660;28;20125;-72
2022/05/23 04:37:58;;;;;;;28.15;25.77;;;13.30;99.90;;;;;;5006443;28;20103;-72
2022/05/23 04:40:30;;;;;;;27.15;25.13;;;13.40;99.90;;;;;;5002147;28;20764;-72
2022/05/23 04:43:00;;;;;;;28.13;25.90;;;13.40;99.90;;;;;;5013000;28;20162;-71
2022/05/23 04:45:27;;;;;;;25.90;24.15;;;13.40;99.90;;;;;;5006005;28;20539;-70
2022/05/23 04:51:04;;;;;;;29.02;26.50;;;13.30;99.90;;;;;;5004618;28;20045;-70
2022/05/23 04:53:40;;;;;;;27.10;25.10;;;13.40;99.90;;;;;;5003215;28;20161;-71
2022/05/23 04:56:13;;;;;;;27.27;25.33;;;13.40;99.90;;;;;;5003126;28;20104;-70
2022/05/23 04:58:39;;;;;;;25.83;24.20;;;13.40;99.90;;;;;;5003661;28;20076;-71
2022/05/23 05:01:06;;;;;;;27.70;25.35;;;13.40;99.90;;;;;;4986705;28;20058;-70
2022/05/23 05:03:33;;;;;;;26.33;24.25;;;13.50;99.90;;;;;;4988629;28;20058;-70
2022/05/23 05:06:00;;;;;;;25.83;24.02;;;13.50;99.90;;;;;;4989057;28;20053;-71
2022/05/23 05:08:28;;;;;;;25.67;23.45;;;13.50;99.90;;;;;;5013328;28;20137;-70
2022/05/23 05:10:57;;;;;;;25.45;23.80;;;13.60;99.90;;;;;;5012525;28;20056;-70
2022/05/23 05:13:28;;;;;;;26.85;24.70;;;13.60;99.90;;;;;;5012790;28;20049;-71
2022/05/23 05:16:00;;;;;;;27.02;24.63;;;13.70;99.90;;;;;;5003951;28;20385;-71
2022/05/23 05:18:30;;;;;;;26.92;25.05;;;13.70;99.90;;;;;;4975559;28;20058;-71
2022/05/23 05:21:19;;;;;;;26.60;24.40;;;13.70;99.90;;;;;;4998792;28;20050;-71
2022/05/23 05:24:15;;;;;;;27.20;24.48;;;13.70;99.90;;;;;;4966571;28;20055;-70
2022/05/23 05:27:00;;;;;;;26.75;24.98;;;13.80;99.90;;;;;;5002334;28;20046;-71
2022/05/23 05:29:27;;;;;;;27.52;25.33;;;13.70;99.90;;;;;;4986163;28;20570;-70
2022/05/23 05:32:01;;;;;;;27.10;24.55;;;13.80;99.90;;;;;;5002002;28;20060;-71
2022/05/23 05:34:35;;;;;;;;;;;13.80;99.90;;;;;;4986729;28;20053;-70
2022/05/23 05:37:09;;;;;;;27.40;25.38;;;13.80;99.90;;;;;;5005504;28;19930;-71
2022/05/23 05:39:38;;;;;;;27.88;25.52;;;13.80;99.90;;;;;;5001622;28;20328;-72
2022/05/23 05:42:15;;;;;;;27.35;25.30;;;13.80;99.90;;;;;;5019668;28;20511;-71
2022/05/23 05:44:49;;;;;;;27.90;25.75;;;13.80;99.90;;;;;;5004619;28;20505;-71
2022/05/23 05:47:19;;;;;;;27.60;25.40;;;13.80;99.90;;;;;;5000913;28;20034;-72
2022/05/23 05:50:08;;;;;;;28.55;26.27;;;13.80;99.90;;;;;;5002686;28;20500;-70
2022/05/23 05:52:46;;;;;;;27.92;25.33;;;13.90;99.90;;;;;;5001616;28;20572;-72
2022/05/23 05:55:13;;;;;;;27.20;24.63;;;13.80;99.90;;;;;;5002036;28;20061;-72
2022/05/23 05:57:50;;;;;;;26.90;25.05;;;13.80;99.90;;;;;;5001678;28;20045;-71
2022/05/23 06:00:17;;;;;;;27.98;25.67;;;13.80;99.90;;;;;;5002277;28;20400;-70
2022/05/23 06:02:44;;;;;;;26.77;24.77;;;14.00;99.90;;;;;;5002733;28;20058;-70
2022/05/23 06:05:18;;;;;;;26.33;24.52;;;14.00;99.90;;;;;;5001702;28;20054;-71
2022/05/23 06:13:39;;;;;;;27.27;25.13;;;14.10;99.90;;;;;;5010290;28;20042;-72
2022/05/23 06:16:10;;;;;;;27.33;25.10;;;14.20;99.90;;;;;;4996969;28;20419;-72
2022/05/23 06:18:45;;;;;;;28.10;25.98;;;14.30;99.90;;;;;;4999974;28;20050;-71
2022/05/23 06:21:12;;;;;;;27.45;25.73;;;14.40;99.90;;;;;;5001156;28;20100;-71
2022/05/23 06:23:41;;;;;;;27.33;25.17;;;14.50;99.90;;;;;;5019766;28;20099;-71
2022/05/23 06:26:26;;;;;;;28.10;26.08;;;14.50;99.90;;;;;;4987038;28;20041;-72
2022/05/23 06:29:11;;;;;;;28.27;26.02;;;14.60;99.90;;;;;;5003759;28;20527;-73
2022/05/23 06:31:38;;;;;;;27.02;25.23;;;14.60;99.90;;;;;;5002676;28;20061;-73
2022/05/23 06:34:05;;;;;;;26.95;25.35;;;14.60;99.90;;;;;;5001200;28;20062;-74
2022/05/23 06:36:32;;;;;;;27.38;25.50;;;14.50;99.90;;;;;;5000250;28;20107;-76
2022/05/23 06:38:59;;;;;;;26.92;25.13;;;14.40;99.90;;;;;;4994309;28;20104;-72
2022/05/23 06:42:02;;;;;;;29.83;27.55;;;14.50;99.90;;;;;;4976097;28;20072;-69
2022/05/23 06:44:48;;;;;;;27.90;25.83;;;14.60;99.90;;;;;;5004531;28;20046;-69
2022/05/23 06:47:34;;;;;;;27.08;25.25;;;14.60;99.90;;;;;;5003112;28;20127;-70
2022/05/23 06:50:19;;;;;;;28.52;26.23;;;14.60;99.90;;;;;;5010138;28;20045;-71
2022/05/23 06:53:05;;;;;;;27.42;25.30;;;14.70;99.90;;;;;;5019600;28;20581;-71
2022/05/23 06:55:39;;;;;;;27.20;25.30;;;14.70;99.90;;;;;;5002448;28;20037;-71
2022/05/23 06:58:07;;;;;;;27.38;25.50;;;14.70;99.90;;;;;;4992948;28;20422;-71
2022/05/23 07:00:35;;;;;;;28.63;26.25;;;14.70;99.90;;;;;;4982475;28;20046;-71
2022/05/23 07:03:09;;;;;;;27.30;25.42;;;14.80;99.90;;;;;;4981573;28;20425;-72
2022/05/23 07:14:15;;;;;;;28.30;26.40;;;15.30;99.90;;;;;;5013988;28;20527;-72
2022/05/23 07:16:42;;;;;;;28.55;26.48;;;15.20;99.90;;;;;;5011110;23;20056;-74
2022/05/23 07:19:09;;;;;;;28.75;26.20;;;15.20;99.90;;;;;;5016133;28;20141;-72
2022/05/23 07:21:52;;;;;;;29.13;26.70;;;15.20;99.90;;;;;;4990005;28;20049;-73
2022/05/23 07:24:19;;;;;;;27.77;25.67;;;15.20;99.90;;;;;;5007071;28;20045;-71
2022/05/23 07:26:54;;;;;;;27.90;25.70;;;15.30;99.90;;;;;;5009530;28;20299;-74
2022/05/23 07:29:24;;;;;;;28.10;26.25;;;15.50;99.90;;;;;;5003315;28;20144;-74
2022/05/23 07:31:53;;;;;;;26.65;24.70;;;15.60;99.90;;;;;;5019924;28;20045;-74
2022/05/23 07:34:21;;;;;;;27.52;25.70;;;15.80;99.90;;;;;;5004444;28;20071;-74
2022/05/23 07:36:48;;;;;;;26.80;25.00;;;16.10;99.90;;;;;;5002983;28;20048;-73
2022/05/23 07:39:16;;;;;;;28.67;26.65;;;16.30;99.90;;;;;;4991693;28;20058;-72
2022/05/23 07:41:55;;;;;;;27.77;26.17;;;16.60;99.90;;;;;;5019372;28;20057;-73
2022/05/23 07:44:26;;;;;;;28.52;26.60;;;16.60;99.90;;;;;;5012009;28;20147;-72
2022/05/23 07:46:57;;;;;;;28.48;26.48;;;16.70;99.90;;;;;;5009471;28;20523;-74
2022/05/23 07:49:24;;;;;;;29.13;26.88;;;16.80;99.90;;;;;;4987495;28;20053;-71
2022/05/23 07:52:08;;;;;;;26.95;24.95;;;17.00;99.90;;;;;;5006232;28;20045;-72
2022/05/23 08:00:37;;;;;;;28.25;26.45;;;17.00;99.90;;;;;;4949712;28;20285;-73
2022/05/23 08:03:17;;;;;;;27.92;25.83;;;17.40;99.90;;;;;;5001865;28;20481;-74
2022/05/23 08:06:10;;;;;;;26.73;24.77;;;17.70;99.90;;;;;;5017053;28;20061;-74
2022/05/23 08:08:37;;;;;;;27.05;25.10;;;17.80;99.90;;;;;;5002607;28;20500;-74
2022/05/23 08:11:08;;;;;;;27.67;25.80;;;18.40;99.90;;;;;;5005544;28;20053;-72
2022/05/23 08:13:47;;;;;;;27.40;25.85;;;18.20;99.90;;;;;;5016868;28;20566;-71
2022/05/23 08:16:14;;;;;;;27.73;26.00;;;18.20;99.90;;;;;;4998593;28;20045;-73
2022/05/23 08:18:41;;;;;;;27.40;25.60;;;18.40;99.90;;;;;;5034217;28;20140;-73
2022/05/23 08:21:08;;;;;;;27.17;25.42;;;18.50;99.90;;;;;;5005796;28;20037;-74
2022/05/23 08:23:41;;;;;;;26.83;25.02;;;18.60;99.90;;;;;;5008406;28;20049;-74
2022/05/23 08:26:14;;;;;;;27.27;25.48;;;18.80;99.90;;;;;;5021730;28;20052;-73
2022/05/23 08:28:44;;;;;;;26.73;25.13;;;18.70;99.90;;;;;;5018681;28;20041;-73
2022/05/23 08:31:11;;;;;;;27.13;25.05;;;18.60;99.90;;;;;;5006694;28;20049;-73
2022/05/23 08:33:45;;;;;;;26.77;24.95;;;18.80;99.90;;;;;;5006043;28;20141;-74
2022/05/23 08:36:19;;;;;;;;;;;18.80;99.90;;;;;;5006323;28;20057;-74
2022/05/23 08:38:46;;;;;;;27.48;25.73;;;18.50;99.90;;;;;;5002488;28;20382;-73
2022/05/23 08:41:35;;;;;;;26.52;24.60;;;18.50;99.90;;;;;;5024258;28;20095;-72
2022/05/23 08:44:55;;;;;;;27.48;25.77;;;18.60;99.90;;;;;;5017348;28;20049;-73
2022/05/23 08:47:43;;;;;;;28.60;26.73;;;18.70;99.90;;;;;;5004568;28;20602;-72
2022/05/23 08:50:24;;;;;;;28.38;26.15;;;18.90;99.90;;;;;;5005173;28;20103;-72
2022/05/23 08:53:12;;;;;;;27.70;25.88;;;19.40;99.90;;;;;;5001541;28;20131;-72
2022/05/23 08:56:11;;;;;;;27.40;25.52;;;19.70;99.90;;;;;;5040989;28;20036;-74
2022/05/23 08:58:54;;;;;;;26.67;24.67;;;20.20;99.90;;;;;;5022942;28;20073;-72
2022/05/23 09:01:31;;;;;;;26.83;25.08;;;20.60;99.90;;;;;;5022544;28;20404;-73
2022/05/23 09:04:11;;;;;;;25.95;24.25;;;20.90;99.90;;;;;;5006115;28;20424;-73
2022/05/23 09:06:47;;;;;;;27.40;25.45;;;20.70;99.90;;;;;;5004893;28;20042;-73
2022/05/23 09:09:21;;;;;;;25.90;24.20;;;20.10;99.90;;;;;;5006656;28;20045;-72
2022/05/23 09:11:52;;;;;;;27.17;25.50;;;20.00;99.90;;;;;;4986729;28;20137;-72
2022/05/23 09:14:20;;;;;;;26.52;24.48;;;19.70;99.90;;;;;;5032670;28;20072;-72
2022/05/23 09:16:52;;;;;;;25.60;23.85;;;20.00;99.90;;;;;;5034126;28;20091;-73
2022/05/23 09:19:34;;;;;;;26.45;24.73;;;20.20;99.90;;;;;;5043011;28;20044;-73
2022/05/23 09:22:18;;;;;;;26.35;24.35;;;20.60;99.90;;;;;;5002807;28;20332;-72
2022/05/23 09:24:51;;;;;;;25.92;24.42;;;20.70;99.90;;;;;;5025326;28;20399;-71
2022/05/23 09:27:33;;;;;;;25.65;24.00;;;20.90;99.90;;;;;;5024652;28;20182;-73
2022/05/23 09:29:59;;;;;;;25.48;23.73;;;20.80;99.90;;;;;;5044144;28;20049;-72
2022/05/23 09:32:39;;;;;;;25.83;24.23;;;21.00;99.90;;;;;;5023352;28;20127;-72
2022/05/23 09:35:21;;;;;;;25.52;23.95;;;20.50;99.90;;;;;;5004736;28;20061;-73
2022/05/23 09:38:05;;;;;;;25.17;23.50;;;20.40;99.90;;;;;;5023693;28;20049;-73
2022/05/23 09:40:37;;;;;;;26.45;24.70;;;20.60;99.90;;;;;;4987048;28;20073;-73
2022/05/23 09:49:09;;;;;;;27.25;25.23;;;20.10;99.90;;;;;;4972156;28;20116;-72
2022/05/23 09:51:57;;;;;;;26.60;24.90;;;20.00;99.90;;;;;;4991174;28;20182;-72
2022/05/23 09:54:33;;;;;;;26.63;24.73;;;20.00;99.90;;;;;;5013042;28;20112;-73
2022/05/23 09:57:03;;;;;;;25.52;23.83;;;20.30;99.90;;;;;;5015379;28;20049;-73
2022/05/23 09:59:36;;;;;;;24.70;23.10;;;20.60;99.90;;;;;;5044574;28;20609;-73
2022/05/23 10:02:29;;;;;;;23.67;22.17;;;21.00;99.90;;;;;;5015841;28;20045;-72
2022/05/23 10:04:57;;;;;;;24.15;22.75;;;20.80;99.90;;;;;;4994371;28;20057;-73
2022/05/23 10:07:36;;;;;;;24.48;22.98;;;20.80;99.90;;;;;;5019888;28;20145;-72
2022/05/23 10:10:29;;;;;;;24.55;23.13;;;20.70;99.90;;;;;;5002357;28;20056;-72
2022/05/23 10:13:29;;;;;;;24.00;22.70;;;21.00;99.90;;;;;;5000752;28;20475;-73
2022/05/23 10:16:12;;;;;;;23.77;22.17;;;21.00;99.90;;;;;;5015169;28;20049;-73
2022/05/23 10:18:59;;;;;;;25.88;24.20;;;21.10;99.90;;;;;;5022981;28;20140;-72
2022/05/23 10:21:35;;;;;;;27.00;24.73;;;21.00;99.90;;;;;;5002628;28;20057;-73
2022/05/23 10:24:16;;;;;;;27.15;25.35;;;21.00;99.90;;;;;;5004395;28;20038;-73
2022/05/23 10:26:53;;;;;;;25.35;23.65;;;21.40;99.90;;;;;;5022259;28;20053;-73
2022/05/23 10:29:54;;;;;;;25.73;23.95;;;21.20;99.90;;;;;;5005052;28;20104;-73
2022/05/23 10:32:27;;;;;;;25.88;24.38;;;21.60;99.90;;;;;;5003909;28;20131;-73
2022/05/23 10:35:05;;;;;;;27.20;25.13;;;21.60;99.90;;;;;;5028823;28;20053;-73
2022/05/23 10:37:36;;;;;;;26.40;24.67;;;21.40;99.90;;;;;;5023076;28;20060;-73
2022/05/23 10:43:20;;;;;;;28.63;26.75;;;21.20;99.90;;;;;;5040029;28;20132;-72
2022/05/23 10:45:57;;;;;;;27.60;25.88;;;21.40;99.90;;;;;;5030778;28;20045;-72
2022/05/23 10:48:42;;;;;;;25.95;24.48;;;21.50;99.90;;;;;;5020933;28;20148;-73
2022/05/23 10:51:15;;;;;;;26.60;24.90;;;21.50;99.90;;;;;;5024030;28;20049;-73
2022/05/23 10:54:08;;;;;;;26.88;25.33;;;21.30;99.90;;;;;;5034492;28;20045;-72
2022/05/23 10:56:51;;;;;;;28.02;25.98;;;21.30;99.90;;;;;;5004135;28;20498;-73
2022/05/23 10:59:24;;;;;;;27.52;25.63;;;21.40;99.90;;;;;;5000709;28;20382;-72
2022/05/23 11:02:09;;;;;;;28.10;26.08;;;21.50;99.90;;;;;;5004337;28;20615;-73
2022/05/23 11:05:14;;;;;;;27.65;25.75;;;21.80;99.90;;;;;;5020996;28;20046;-72
2022/05/23 11:08:00;;;;;;;26.00;24.35;;;21.70;99.90;;;;;;5023198;28;20045;-73
2022/05/23 11:10:44;;;;;;;27.13;25.08;;;21.40;99.90;;;;;;5023513;28;20036;-73
2022/05/23 11:13:49;;;;;;;26.70;25.20;;;21.40;99.90;;;;;;5016296;28;20045;-73
2022/05/23 11:16:31;;;;;;;26.80;24.98;;;20.90;99.90;;;;;;4914244;29;20127;-73
2022/05/23 11:19:31;;;;;;;28.90;26.90;;;21.20;99.90;;;;;;4902718;29;20396;-74
2022/05/23 11:22:20;;;;;;;28.15;26.20;;;21.50;99.90;;;;;;4965144;28;20069;-72
2022/05/23 11:24:59;;;;;;;26.48;24.60;;;21.50;99.90;;;;;;4995897;28;20145;-73
2022/05/23 11:35:55;;;;;;;25.23;23.67;;;21.50;99.90;;;;;;5021751;28;20494;-73
2022/05/23 11:38:22;;;;;;;25.27;23.58;;;21.50;99.90;;;;;;5010407;28;20106;-72
2022/05/23 11:41:05;;;;;;;25.50;23.98;;;21.60;99.90;;;;;;5038781;28;20126;-73
2022/05/23 11:43:32;;;;;;;24.60;22.90;;;21.20;99.90;;;;;;5035692;28;20057;-72
2022/05/23 11:46:02;;;;;;;25.05;23.65;;;21.20;99.90;;;;;;5012128;28;20571;-73
2022/05/23 11:48:39;;;;;;;25.60;24.10;;;21.30;99.90;;;;;;5028593;28;20415;-73
2022/05/23 11:51:12;;;;;;;25.17;23.40;;;21.60;99.90;;;;;;5031164;28;20129;-73
2022/05/23 11:53:46;;;;;;;25.88;23.95;;;22.10;99.90;;;;;;5004681;28;20111;-74
2022/05/23 11:56:51;;;;;;;24.83;23.40;;;22.20;99.90;;;;;;5015677;28;20061;-73
2022/05/23 11:59:24;;;;;;;25.58;23.92;;;22.30;99.90;;;;;;5024528;28;20077;-73
2022/05/23 12:02:12;;;;;;;26.88;24.83;;;22.10;99.90;;;;;;5027006;28;20172;-73
2022/05/23 12:04:48;;;;;;;24.30;23.00;;;22.20;99.90;;;;;;5019055;28;20045;-73
2022/05/23 12:07:31;;;;;;;26.10;24.20;;;22.20;99.90;;;;;;5030520;28;20034;-74
2022/05/23 12:10:22;;;;;;;24.08;22.65;;;22.20;99.90;;;;;;5018979;28;20192;-73
2022/05/23 12:12:54;;;;;;;26.30;24.73;;;22.20;99.90;;;;;;5031007;28;20060;-73
2022/05/23 12:15:43;;;;;;;24.80;23.40;;;22.00;99.90;;;;;;5015930;28;20069;-73
2022/05/23 12:18:27;;;;;;;25.77;24.35;;;21.80;99.90;;;;;;5012539;28;20044;-73
2022/05/23 12:20:55;;;;;;;25.63;24.00;;;21.80;99.90;;;;;;4999451;28;20490;-74
2022/05/23 12:23:36;;;;;;;26.05;24.15;;;22.00;99.90;;;;;;5022445;28;20225;-73
2022/05/23 12:26:12;;;;;;;25.83;24.25;;;22.40;99.90;;;;;;5002673;28;20550;-73
2022/05/23 12:28:52;;;;;;;25.48;23.73;;;22.70;99.90;;;;;;5003516;28;20609;-72
2022/05/23 12:31:22;;;;;;;23.80;22.30;;;22.80;99.90;;;;;;5015703;28;20512;-72
2022/05/23 12:33:52;;;;;;;23.65;22.25;;;22.90;99.90;;;;;;5017331;28;20821;-71
2022/05/23 12:36:23;;;;;;;25.05;23.63;;;22.70;99.90;;;;;;5011827;28;20495;-72
2022/05/23 12:39:02;;;;;;;25.30;23.75;;;22.80;99.90;;;;;;5014054;28;20106;-72
2022/05/23 12:41:41;;;;;;;24.30;22.88;;;22.50;99.90;;;;;;5000637;28;20100;-72
2022/05/23 12:44:43;;;;;;;23.60;22.10;;;22.50;99.90;;;;;;5008371;28;20053;-72
2022/05/23 12:47:17;;;;;;;25.05;23.38;;;22.20;99.90;;;;;;5025052;28;20073;-71
2022/05/23 12:50:12;;;;;;;24.48;22.80;;;21.60;99.90;;;;;;5006014;28;20042;-73
2022/05/23 12:53:20;;;;;;;26.17;24.35;;;21.60;99.90;;;;;;5014276;28;21023;-71
2022/05/23 12:56:09;;;;;;;23.65;22.25;;;21.30;99.90;;;;;;5015710;28;20099;-71
2022/05/23 12:58:39;;;;;;;25.45;23.63;;;21.40;99.90;;;;;;5011775;28;20383;-71
2022/05/23 13:01:09;;;;;;;24.85;23.05;;;21.80;99.90;;;;;;5024697;28;20045;-71
2022/05/23 13:04:19;;;;;;;24.55;23.23;;;21.90;99.90;;;;;;5019773;28;20044;-72
2022/05/23 13:07:01;;;;;;;23.85;22.45;;;21.90;99.90;;;;;;4960173;28;20054;-73
2022/05/23 13:10:06;;;;;;;25.48;23.83;;;21.90;99.90;;;;;;4961168;28;20058;-72
2022/05/23 13:12:44;;;;;;;24.93;23.33;;;21.70;99.90;;;;;;4927998;29;20040;-70
2022/05/23 13:15:22;;;;;;;24.13;22.40;;;21.50;99.90;;;;;;4944943;28;20031;-71
2022/05/23 13:17:49;;;;;;;24.65;22.98;;;21.30;99.90;;;;;;5003159;22;20080;-74
2022/05/23 13:23:17;;;;;;;24.80;23.33;;;21.30;99.90;;;;;;5024752;28;20057;-75
2022/05/23 13:25:45;;;;;;;26.25;24.23;;;21.30;99.90;;;;;;5006571;28;20041;-74
2022/05/23 13:28:15;;;;;;;26.52;24.83;;;21.10;99.90;;;;;;5005000;28;20613;-75
2022/05/23 13:30:55;;;;;;;25.35;23.75;;;21.10;99.90;;;;;;5003482;28;20533;-75
2022/05/23 13:33:32;;;;;;;25.70;24.10;;;21.20;99.90;;;;;;5005464;28;20096;-75
2022/05/23 13:36:02;;;;;;;26.42;24.83;;;21.20;99.90;;;;;;5020605;28;20152;-74
2022/05/23 13:38:32;;;;;;;24.65;23.20;;;21.30;99.90;;;;;;4998177;28;20066;-75
2022/05/23 13:41:02;;;;;;;25.42;23.42;;;21.50;99.90;;;;;;5014577;28;20053;-74
2022/05/23 13:43:31;;;;;;;25.25;23.45;;;21.90;99.90;;;;;;5008871;28;20107;-75
2022/05/23 13:46:32;;;;;;;24.20;22.60;;;22.00;99.90;;;;;;4995514;28;20135;-73
2022/05/23 13:49:03;;;;;;;25.20;23.50;;;22.00;99.90;;;;;;4970354;28;20058;-74
2022/05/23 13:51:44;;;;;;;23.17;21.88;;;21.90;99.90;;;;;;5002826;28;20046;-75
2022/05/23 13:54:16;;;;;;;23.60;22.20;;;22.00;99.90;;;;;;4987553;28;20046;-75
2022/05/23 13:56:48;;;;;;;23.88;22.40;;;21.60;99.90;;;;;;4987592;28;20366;-75
2022/05/23 13:59:22;;;;;;;24.58;22.92;;;21.30;99.90;;;;;;5004145;28;20515;-75
2022/05/23 14:02:00;;;;;;;25.50;23.73;;;20.80;99.90;;;;;;5003128;28;20503;-74
2022/05/23 14:04:35;;;;;;;24.77;23.13;;;20.80;99.90;;;;;;5019178;28;20041;-74
2022/05/23 14:07:08;;;;;;;24.13;22.35;;;21.10;99.90;;;;;;5004994;28;20295;-74
2022/05/23 14:09:44;;;;;;;25.55;23.80;;;21.20;99.90;;;;;;5001681;28;20487;-75
2022/05/23 14:12:17;;;;;;;25.05;23.33;;;21.30;99.90;;;;;;4989711;28;20049;-74